createdAt,value
2018-01-07T00:00:48.944Z,0.00
2018-01-07T00:01:48.879Z,0.00
2018-01-07T00:02:48.815Z,0.00
2018-01-07T00:03:48.752Z,0.00
2018-01-07T00:04:48.688Z,0.00
2018-01-07T00:05:48.624Z,0.00
2018-01-07T00:06:48.561Z,0.00
2018-01-07T00:07:48.498Z,0.00
2018-01-07T00:08:48.435Z,0.00
2018-01-07T00:09:48.371Z,0.00
2018-01-07T00:10:48.307Z,0.00
2018-01-07T00:11:48.245Z,0.00
2018-01-07T00:12:48.180Z,0.00
2018-01-07T00:13:48.118Z,0.00
2018-01-07T00:14:48.052Z,0.00
2018-01-07T00:15:47.991Z,0.00
2018-01-07T00:16:47.926Z,0.00
2018-01-07T00:17:47.868Z,0.00
2018-01-07T00:18:47.800Z,0.00
2018-01-07T00:19:47.737Z,0.00
2018-01-07T00:20:47.673Z,0.00
2018-01-07T00:21:47.609Z,0.00
2018-01-07T00:22:47.551Z,0.00
2018-01-07T00:23:47.482Z,0.00
2018-01-07T00:24:47.418Z,0.00
2018-01-07T00:25:47.355Z,0.00
2018-01-07T00:26:47.292Z,0.00
2018-01-07T00:27:47.230Z,0.00
2018-01-07T00:28:47.165Z,0.00
2018-01-07T00:29:47.101Z,0.00
2018-01-07T00:30:47.040Z,0.00
2018-01-07T00:31:46.974Z,0.00
2018-01-07T00:32:46.910Z,0.00
2018-01-07T00:33:46.848Z,0.00
2018-01-07T00:34:46.783Z,0.00
2018-01-07T00:35:46.721Z,0.00
2018-01-07T00:36:46.657Z,0.00
2018-01-07T00:37:46.593Z,0.00
2018-01-07T00:38:46.530Z,0.00
2018-01-07T00:39:46.467Z,0.00
2018-01-07T00:40:46.402Z,0.00
2018-01-07T00:41:46.340Z,0.00
2018-01-07T00:42:46.276Z,0.00
2018-01-07T00:43:46.212Z,0.00
2018-01-07T00:44:46.150Z,0.00
2018-01-07T00:45:46.088Z,0.00
2018-01-07T00:46:46.021Z,0.00
2018-01-07T00:47:45.959Z,0.00
2018-01-07T00:48:45.895Z,0.00
2018-01-07T00:49:45.832Z,0.00
2018-01-07T00:50:45.768Z,0.00
2018-01-07T00:51:45.704Z,0.00
2018-01-07T00:52:45.641Z,0.00
2018-01-07T00:53:45.578Z,0.00
2018-01-07T00:54:45.515Z,0.00
2018-01-07T00:55:45.451Z,0.00
2018-01-07T00:56:45.387Z,0.00
2018-01-07T00:57:45.324Z,0.00
2018-01-07T00:58:45.265Z,0.00
2018-01-07T00:59:45.196Z,0.00
2018-01-07T01:00:45.132Z,0.00
2018-01-07T01:01:45.069Z,0.00
2018-01-07T01:02:45.007Z,0.00
2018-01-07T01:03:44.942Z,0.00
2018-01-07T01:04:44.878Z,0.00
2018-01-07T01:05:44.814Z,0.00
2018-01-07T01:06:44.750Z,0.00
2018-01-07T01:07:44.688Z,0.00
2018-01-07T01:08:44.625Z,0.00
2018-01-07T01:09:44.560Z,0.00
2018-01-07T01:10:44.502Z,0.00
2018-01-07T01:11:44.436Z,0.00
2018-01-07T01:12:44.369Z,0.00
2018-01-07T01:13:44.315Z,0.00
2018-01-07T01:14:44.241Z,0.00
2018-01-07T01:15:44.179Z,0.00
2018-01-07T01:16:44.115Z,0.00
2018-01-07T01:17:44.051Z,0.00
2018-01-07T01:18:43.989Z,0.00
2018-01-07T01:19:43.932Z,0.00
2018-01-07T01:20:43.860Z,0.00
2018-01-07T01:21:43.796Z,0.00
2018-01-07T01:22:43.733Z,0.00
2018-01-07T01:23:43.718Z,0.00
2018-01-07T01:24:43.605Z,0.00
2018-01-07T01:25:43.542Z,0.00
2018-01-07T01:26:43.480Z,0.00
2018-01-07T01:27:43.416Z,0.00
2018-01-07T01:28:43.350Z,0.00
2018-01-07T01:29:43.288Z,0.00
2018-01-07T01:30:43.226Z,0.00
2018-01-07T01:31:43.161Z,0.00
2018-01-07T01:32:43.096Z,0.00
2018-01-07T01:33:43.034Z,0.00
2018-01-07T01:34:42.970Z,0.00
2018-01-07T01:35:42.907Z,0.00
2018-01-07T01:36:42.843Z,0.00
2018-01-07T01:37:42.779Z,0.00
2018-01-07T01:38:42.716Z,0.00
2018-01-07T01:39:42.653Z,0.00
2018-01-07T01:40:42.588Z,0.00
2018-01-07T01:41:42.526Z,0.00
2018-01-07T01:42:42.461Z,0.00
2018-01-07T01:43:42.398Z,0.00
2018-01-07T01:44:42.334Z,0.00
2018-01-07T01:45:42.270Z,0.00
2018-01-07T01:46:42.209Z,0.00
2018-01-07T01:47:42.144Z,0.00
2018-01-07T01:48:42.078Z,0.00
2018-01-07T01:49:42.018Z,0.00
2018-01-07T01:50:41.953Z,0.00
2018-01-07T01:51:41.890Z,0.00
2018-01-07T01:52:41.825Z,0.00
2018-01-07T01:53:41.766Z,0.00
2018-01-07T01:54:41.701Z,0.00
2018-01-07T01:55:41.635Z,0.00
2018-01-07T01:56:41.572Z,0.00
2018-01-07T01:57:41.508Z,0.00
2018-01-07T01:58:41.445Z,0.00
2018-01-07T01:59:41.382Z,0.00
2018-01-07T02:00:41.320Z,0.00
2018-01-07T02:01:41.254Z,0.00
2018-01-07T02:02:41.190Z,0.00
2018-01-07T02:03:41.127Z,0.00
2018-01-07T02:04:41.063Z,0.00
2018-01-07T02:05:40.999Z,0.00
2018-01-07T02:06:40.941Z,0.00
2018-01-07T02:07:40.872Z,0.00
2018-01-07T02:08:40.807Z,0.00
2018-01-07T02:09:40.744Z,0.00
2018-01-07T02:10:40.682Z,0.00
2018-01-07T02:11:40.617Z,0.00
2018-01-07T02:12:40.553Z,0.00
2018-01-07T02:13:40.490Z,0.00
2018-01-07T02:14:40.427Z,0.00
2018-01-07T02:15:40.363Z,0.00
2018-01-07T02:16:40.298Z,0.00
2018-01-07T02:17:40.235Z,0.00
2018-01-07T02:18:40.173Z,0.00
2018-01-07T02:19:40.110Z,0.00
2018-01-07T02:20:40.043Z,0.00
2018-01-07T02:21:39.980Z,0.00
2018-01-07T02:22:39.916Z,0.00
2018-01-07T02:23:39.853Z,0.00
2018-01-07T02:24:39.789Z,0.00
2018-01-07T02:25:39.725Z,0.00
2018-01-07T02:26:39.662Z,0.00
2018-01-07T02:27:39.600Z,0.00
2018-01-07T02:28:39.536Z,0.00
2018-01-07T02:29:39.471Z,0.00
2018-01-07T02:30:39.408Z,0.00
2018-01-07T02:31:39.344Z,0.00
2018-01-07T02:32:39.281Z,0.00
2018-01-07T02:33:39.217Z,0.00
2018-01-07T02:34:39.154Z,0.00
2018-01-07T02:35:39.090Z,0.00
2018-01-07T02:36:39.027Z,0.00
2018-01-07T02:37:38.962Z,0.00
2018-01-07T02:38:38.900Z,0.00
2018-01-07T02:39:38.836Z,0.00
2018-01-07T02:40:38.770Z,0.00
2018-01-07T02:41:38.710Z,0.00
2018-01-07T02:42:38.644Z,0.00
2018-01-07T02:43:38.583Z,0.00
2018-01-07T02:44:38.516Z,0.00
2018-01-07T02:45:38.452Z,0.00
2018-01-07T02:46:38.391Z,0.00
2018-01-07T02:47:38.326Z,0.00
2018-01-07T02:48:38.260Z,0.00
2018-01-07T02:49:38.197Z,0.00
2018-01-07T02:50:38.134Z,0.00
2018-01-07T02:51:38.069Z,0.00
2018-01-07T02:52:38.007Z,0.00
2018-01-07T02:53:37.943Z,0.00
2018-01-07T02:54:37.885Z,0.00
2018-01-07T02:55:37.817Z,0.00
2018-01-07T02:56:37.752Z,0.00
2018-01-07T02:57:37.687Z,0.00
2018-01-07T02:58:37.625Z,0.00
2018-01-07T02:59:37.560Z,0.00
2018-01-07T03:00:37.497Z,0.00
2018-01-07T03:01:37.433Z,0.00
2018-01-07T03:02:37.369Z,0.00
2018-01-07T03:03:37.306Z,0.00
2018-01-07T03:04:37.241Z,0.00
2018-01-07T03:05:37.177Z,0.00
2018-01-07T03:06:37.115Z,0.00
2018-01-07T03:07:37.050Z,0.00
2018-01-07T03:08:36.986Z,0.00
2018-01-07T03:09:36.922Z,0.00
2018-01-07T03:10:36.859Z,0.00
2018-01-07T03:11:36.796Z,0.00
2018-01-07T03:12:36.731Z,0.00
2018-01-07T03:13:36.674Z,0.00
2018-01-07T03:14:36.604Z,0.00
2018-01-07T03:15:36.539Z,0.00
2018-01-07T03:16:36.476Z,0.00
2018-01-07T03:17:36.415Z,0.00
2018-01-07T03:18:36.349Z,0.00
2018-01-07T03:19:36.286Z,0.00
2018-01-07T03:20:36.221Z,0.00
2018-01-07T03:21:36.158Z,0.00
2018-01-07T03:22:36.094Z,0.00
2018-01-07T03:23:36.031Z,0.00
2018-01-07T03:24:35.967Z,0.00
2018-01-07T03:25:35.903Z,0.00
2018-01-07T03:26:35.839Z,0.00
2018-01-07T03:27:35.775Z,0.00
2018-01-07T03:28:35.710Z,0.00
2018-01-07T03:29:35.647Z,0.00
2018-01-07T03:30:35.585Z,0.00
2018-01-07T03:31:35.523Z,0.00
2018-01-07T03:32:35.456Z,0.00
2018-01-07T03:33:35.395Z,0.00
2018-01-07T03:34:35.328Z,0.00
2018-01-07T03:35:35.265Z,0.00
2018-01-07T03:36:35.225Z,0.00
2018-01-07T03:37:35.136Z,0.00
2018-01-07T03:38:35.074Z,0.00
2018-01-07T03:39:35.012Z,0.00
2018-01-07T03:40:34.945Z,0.00
2018-01-07T03:41:34.881Z,0.00
2018-01-07T03:42:34.818Z,0.00
2018-01-07T03:43:34.755Z,0.00
2018-01-07T03:44:34.690Z,0.00
2018-01-07T03:45:34.630Z,0.00
2018-01-07T03:46:34.568Z,0.00
2018-01-07T03:47:34.500Z,0.00
2018-01-07T03:48:34.434Z,0.00
2018-01-07T03:49:34.371Z,0.00
2018-01-07T03:50:34.308Z,0.00
2018-01-07T03:51:34.243Z,0.00
2018-01-07T03:52:34.179Z,0.00
2018-01-07T03:53:34.115Z,0.00
2018-01-07T03:54:34.052Z,0.00
2018-01-07T03:55:33.988Z,0.00
2018-01-07T03:56:33.924Z,0.00
2018-01-07T03:57:33.860Z,0.00
2018-01-07T03:58:33.797Z,0.00
2018-01-07T03:59:33.732Z,0.00
2018-01-07T04:00:33.668Z,0.00
2018-01-07T04:01:33.603Z,0.00
2018-01-07T04:02:33.541Z,0.00
2018-01-07T04:03:33.478Z,0.00
2018-01-07T04:04:33.412Z,0.00
2018-01-07T04:05:33.399Z,0.00
2018-01-07T04:06:33.284Z,0.00
2018-01-07T04:07:33.225Z,0.00
2018-01-07T04:08:33.159Z,0.00
2018-01-07T04:09:33.093Z,0.00
2018-01-07T04:10:33.030Z,0.00
2018-01-07T04:11:32.969Z,0.00
2018-01-07T04:12:32.901Z,0.00
2018-01-07T04:13:32.839Z,0.00
2018-01-07T04:14:32.816Z,0.00
2018-01-07T04:15:32.710Z,0.00
2018-01-07T04:16:32.645Z,0.00
2018-01-07T04:17:32.582Z,0.00
2018-01-07T04:18:32.519Z,0.00
2018-01-07T04:19:32.455Z,0.00
2018-01-07T04:20:32.390Z,0.00
2018-01-07T04:21:32.326Z,0.00
2018-01-07T04:22:32.264Z,0.00
2018-01-07T04:23:32.200Z,0.00
2018-01-07T04:24:32.134Z,0.00
2018-01-07T04:25:32.070Z,0.00
2018-01-07T04:26:32.007Z,0.00
2018-01-07T04:27:31.944Z,0.00
2018-01-07T04:28:31.879Z,0.00
2018-01-07T04:29:31.815Z,0.00
2018-01-07T04:30:31.751Z,0.00
2018-01-07T04:31:31.687Z,0.00
2018-01-07T04:32:31.622Z,0.00
2018-01-07T04:33:31.558Z,0.00
2018-01-07T04:34:31.494Z,0.00
2018-01-07T04:35:31.431Z,0.00
2018-01-07T04:36:31.368Z,0.00
2018-01-07T04:37:31.302Z,0.00
2018-01-07T04:38:31.238Z,0.00
2018-01-07T04:39:31.174Z,0.00
2018-01-07T04:40:31.111Z,0.00
2018-01-07T04:41:31.052Z,0.00
2018-01-07T04:42:30.983Z,0.00
2018-01-07T04:43:30.919Z,0.00
2018-01-07T04:44:30.854Z,0.00
2018-01-07T04:45:30.790Z,0.00
2018-01-07T04:46:30.726Z,0.00
2018-01-07T04:47:30.663Z,0.00
2018-01-07T04:48:30.598Z,0.00
2018-01-07T04:49:30.534Z,0.00
2018-01-07T04:50:30.479Z,0.00
2018-01-07T04:51:30.408Z,0.00
2018-01-07T04:52:30.345Z,0.00
2018-01-07T04:53:30.278Z,0.00
2018-01-07T04:54:30.216Z,0.00
2018-01-07T04:55:30.152Z,0.00
2018-01-07T04:56:30.087Z,0.00
2018-01-07T04:57:30.023Z,0.00
2018-01-07T04:58:29.958Z,0.00
2018-01-07T04:59:29.896Z,0.00
2018-01-07T05:00:29.832Z,0.00
2018-01-07T05:01:29.767Z,0.00
2018-01-07T05:02:29.704Z,0.00
2018-01-07T05:03:29.638Z,0.00
2018-01-07T05:04:29.575Z,0.00
2018-01-07T05:05:29.512Z,0.00
2018-01-07T05:06:29.447Z,0.00
2018-01-07T05:07:29.384Z,0.00
2018-01-07T05:08:29.319Z,0.00
2018-01-07T05:09:29.257Z,0.00
2018-01-07T05:10:29.191Z,0.00
2018-01-07T05:11:29.128Z,0.00
2018-01-07T05:12:29.063Z,0.00
2018-01-07T05:13:29.001Z,0.00
2018-01-07T05:14:28.935Z,0.00
2018-01-07T05:15:28.874Z,0.00
2018-01-07T05:16:28.807Z,0.00
2018-01-07T05:17:28.744Z,0.00
2018-01-07T05:18:28.680Z,0.00
2018-01-07T05:19:28.615Z,0.00
2018-01-07T05:20:28.551Z,0.00
2018-01-07T05:21:28.487Z,0.00
2018-01-07T05:22:28.423Z,0.00
2018-01-07T05:23:28.409Z,0.00
2018-01-07T05:24:28.296Z,0.00
2018-01-07T05:25:28.230Z,0.00
2018-01-07T05:26:28.167Z,0.00
2018-01-07T05:27:28.103Z,0.00
2018-01-07T05:28:28.039Z,0.00
2018-01-07T05:29:27.974Z,0.00
2018-01-07T05:30:27.910Z,0.00
2018-01-07T05:31:27.847Z,0.00
2018-01-07T05:32:27.782Z,0.00
2018-01-07T05:33:27.722Z,0.00
2018-01-07T05:34:27.655Z,0.00
2018-01-07T05:35:27.591Z,0.00
2018-01-07T05:36:27.526Z,0.00
2018-01-07T05:37:27.464Z,0.00
2018-01-07T05:38:27.399Z,0.00
2018-01-07T05:39:27.338Z,0.00
2018-01-07T05:40:27.272Z,0.00
2018-01-07T05:41:27.207Z,0.00
2018-01-07T05:42:27.144Z,0.00
2018-01-07T05:43:27.079Z,0.00
2018-01-07T05:44:27.014Z,0.00
2018-01-07T05:45:26.952Z,0.00
2018-01-07T05:46:26.890Z,0.00
2018-01-07T05:47:26.823Z,0.00
2018-01-07T05:48:26.759Z,0.00
2018-01-07T05:49:26.697Z,0.00
2018-01-07T05:50:26.632Z,0.00
2018-01-07T05:51:26.569Z,0.00
2018-01-07T05:52:26.503Z,0.00
2018-01-07T05:53:26.440Z,0.00
2018-01-07T05:54:26.374Z,0.00
2018-01-07T05:55:26.311Z,0.00
2018-01-07T05:56:26.247Z,0.00
2018-01-07T05:57:26.183Z,0.00
2018-01-07T05:58:26.120Z,0.00
2018-01-07T05:59:26.055Z,0.00
2018-01-07T06:00:25.990Z,0.00
2018-01-07T06:01:25.927Z,0.00
2018-01-07T06:02:25.863Z,0.00
2018-01-07T06:03:25.799Z,0.00
2018-01-07T06:04:25.734Z,0.00
2018-01-07T06:05:25.671Z,0.00
2018-01-07T06:06:25.606Z,0.00
2018-01-07T06:07:25.542Z,0.00
2018-01-07T06:08:25.478Z,0.00
2018-01-07T06:09:25.417Z,0.00
2018-01-07T06:10:25.349Z,0.00
2018-01-07T06:11:25.287Z,0.00
2018-01-07T06:12:25.220Z,0.00
2018-01-07T06:13:25.158Z,0.00
2018-01-07T06:14:25.095Z,0.00
2018-01-07T06:15:25.030Z,0.00
2018-01-07T06:16:24.966Z,0.00
2018-01-07T06:17:24.901Z,0.00
2018-01-07T06:18:24.838Z,0.00
2018-01-07T06:19:24.773Z,0.00
2018-01-07T06:20:24.709Z,0.00
2018-01-07T06:21:24.645Z,0.00
2018-01-07T06:22:24.581Z,0.00
2018-01-07T06:23:24.516Z,0.00
2018-01-07T06:24:24.452Z,0.00
2018-01-07T06:25:24.396Z,0.00
2018-01-07T06:26:24.326Z,0.00
2018-01-07T06:27:24.261Z,0.00
2018-01-07T06:28:24.195Z,0.00
2018-01-07T06:29:24.131Z,0.00
2018-01-07T06:30:24.068Z,0.00
2018-01-07T06:31:24.006Z,0.00
2018-01-07T06:32:23.940Z,0.00
2018-01-07T06:33:23.875Z,0.00
2018-01-07T06:34:23.812Z,0.00
2018-01-07T06:35:23.749Z,0.00
2018-01-07T06:36:23.682Z,0.00
2018-01-07T06:37:23.622Z,0.00
2018-01-07T06:38:23.557Z,0.00
2018-01-07T06:39:23.494Z,0.00
2018-01-07T06:40:23.426Z,0.00
2018-01-07T06:41:23.363Z,0.00
2018-01-07T06:42:23.299Z,0.00
2018-01-07T06:43:23.237Z,0.00
2018-01-07T06:44:23.171Z,0.00
2018-01-07T06:45:23.106Z,0.00
2018-01-07T06:46:23.042Z,0.00
2018-01-07T06:47:22.978Z,0.00
2018-01-07T06:48:22.916Z,0.00
2018-01-07T06:49:22.849Z,0.00
2018-01-07T06:50:22.786Z,0.00
2018-01-07T06:51:22.722Z,0.00
2018-01-07T06:52:22.656Z,0.00
2018-01-07T06:53:22.594Z,0.00
2018-01-07T06:54:22.529Z,0.00
2018-01-07T06:55:22.466Z,0.00
2018-01-07T06:56:22.417Z,0.00
2018-01-07T06:57:22.337Z,4.00
2018-01-07T06:58:22.282Z,4.00
2018-01-07T06:59:22.210Z,0.00
2018-01-07T07:00:22.144Z,4.00
2018-01-07T07:01:22.081Z,4.00
2018-01-07T07:02:22.017Z,4.00
2018-01-07T07:03:21.955Z,4.00
2018-01-07T07:04:21.889Z,8.00
2018-01-07T07:05:21.825Z,8.00
2018-01-07T07:06:21.818Z,8.00
2018-01-07T07:07:21.697Z,12.00
2018-01-07T07:08:21.632Z,12.00
2018-01-07T07:09:21.568Z,12.00
2018-01-07T07:10:21.504Z,12.00
2018-01-07T07:11:21.440Z,16.00
2018-01-07T07:12:21.382Z,16.00
2018-01-07T07:13:21.317Z,20.00
2018-01-07T07:14:21.249Z,16.00
2018-01-07T07:15:21.184Z,24.00
2018-01-07T07:16:21.120Z,24.00
2018-01-07T07:17:21.059Z,24.00
2018-01-07T07:18:20.991Z,28.00
2018-01-07T07:19:20.978Z,32.00
2018-01-07T07:20:20.862Z,32.00
2018-01-07T07:21:20.799Z,40.00
2018-01-07T07:22:20.736Z,40.00
2018-01-07T07:23:20.670Z,44.00
2018-01-07T07:24:20.606Z,44.00
2018-01-07T07:25:20.542Z,48.00
2018-01-07T07:26:20.478Z,52.00
2018-01-07T07:27:20.415Z,56.00
2018-01-07T07:28:20.349Z,64.00
2018-01-07T07:29:20.432Z,68.00
2018-01-07T07:30:20.278Z,76.00
2018-01-07T07:31:20.211Z,80.00
2018-01-07T07:32:20.146Z,84.00
2018-01-07T07:33:20.035Z,88.00
2018-01-07T07:34:19.965Z,88.00
2018-01-07T07:35:19.903Z,92.00
2018-01-07T07:36:19.836Z,100.00
2018-01-07T07:37:19.774Z,104.00
2018-01-07T07:38:19.708Z,104.00
2018-01-07T07:39:19.644Z,112.00
2018-01-07T07:40:19.579Z,116.00
2018-01-07T07:41:19.515Z,124.00
2018-01-07T07:42:19.451Z,128.00
2018-01-07T07:43:19.387Z,132.00
2018-01-07T07:44:19.321Z,140.00
2018-01-07T07:45:19.258Z,148.00
2018-01-07T07:46:19.193Z,152.00
2018-01-07T07:47:19.130Z,160.00
2018-01-07T07:48:19.066Z,172.00
2018-01-07T07:49:19.001Z,180.00
2018-01-07T07:50:18.941Z,180.00
2018-01-07T07:51:18.875Z,188.00
2018-01-07T07:52:18.808Z,192.00
2018-01-07T07:53:18.775Z,196.00
2018-01-07T07:54:18.680Z,200.00
2018-01-07T07:55:18.616Z,200.00
2018-01-07T07:56:18.553Z,208.00
2018-01-07T07:57:18.488Z,212.00
2018-01-07T07:58:18.423Z,232.00
2018-01-07T07:59:18.363Z,256.00
2018-01-07T08:00:18.294Z,268.00
2018-01-07T08:01:18.230Z,272.00
2018-01-07T08:02:18.166Z,284.00
2018-01-07T08:03:18.104Z,296.00
2018-01-07T08:04:18.053Z,312.00
2018-01-07T08:05:17.978Z,332.00
2018-01-07T08:06:17.910Z,352.00
2018-01-07T08:07:17.845Z,372.00
2018-01-07T08:08:17.781Z,388.00
2018-01-07T08:09:17.714Z,396.00
2018-01-07T08:10:17.654Z,392.00
2018-01-07T08:11:17.588Z,408.00
2018-01-07T08:12:17.540Z,428.00
2018-01-07T08:13:17.458Z,440.00
2018-01-07T08:14:17.400Z,452.00
2018-01-07T08:15:17.331Z,464.00
2018-01-07T08:16:17.267Z,472.00
2018-01-07T08:17:17.201Z,472.00
2018-01-07T08:18:17.136Z,480.00
2018-01-07T08:19:17.071Z,496.00
2018-01-07T08:20:17.006Z,492.00
2018-01-07T08:21:16.944Z,480.00
2018-01-07T08:22:16.880Z,484.00
2018-01-07T08:23:16.816Z,512.00
2018-01-07T08:24:16.749Z,520.00
2018-01-07T08:25:16.686Z,504.00
2018-01-07T08:26:16.623Z,500.00
2018-01-07T08:27:16.558Z,500.00
2018-01-07T08:28:16.496Z,508.00
2018-01-07T08:29:16.428Z,512.00
2018-01-07T08:30:16.364Z,504.00
2018-01-07T08:31:16.304Z,524.00
2018-01-07T08:32:16.235Z,536.00
2018-01-07T08:33:16.191Z,532.00
2018-01-07T08:34:16.106Z,540.00
2018-01-07T08:35:16.043Z,576.00
2018-01-07T08:36:15.977Z,600.00
2018-01-07T08:37:15.913Z,620.00
2018-01-07T08:38:15.852Z,612.00
2018-01-07T08:39:15.785Z,580.00
2018-01-07T08:40:15.720Z,584.00
2018-01-07T08:41:15.654Z,588.00
2018-01-07T08:42:15.591Z,584.00
2018-01-07T08:43:15.540Z,584.00
2018-01-07T08:44:15.461Z,616.00
2018-01-07T08:45:15.398Z,648.00
2018-01-07T08:46:15.334Z,676.00
2018-01-07T08:47:15.269Z,688.00
2018-01-07T08:48:15.205Z,696.00
2018-01-07T08:49:15.141Z,712.00
2018-01-07T08:50:15.108Z,736.00
2018-01-07T08:51:15.014Z,748.00
2018-01-07T08:52:14.948Z,776.00
2018-01-07T08:53:14.883Z,796.00
2018-01-07T08:54:14.819Z,776.00
2018-01-07T08:55:14.754Z,772.00
2018-01-07T08:56:14.690Z,792.00
2018-01-07T08:57:14.626Z,824.00
2018-01-07T08:58:14.564Z,860.00
2018-01-07T08:59:14.498Z,864.00
2018-01-07T09:00:14.432Z,900.00
2018-01-07T09:01:14.376Z,936.00
2018-01-07T09:02:14.305Z,992.00
2018-01-07T09:03:14.241Z,1044.00
2018-01-07T09:04:14.176Z,1032.00
2018-01-07T09:05:14.143Z,1008.00
2018-01-07T09:06:14.048Z,1028.00
2018-01-07T09:07:13.991Z,1032.00
2018-01-07T09:08:13.920Z,1020.00
2018-01-07T09:09:13.855Z,1048.00
2018-01-07T09:10:13.790Z,1100.00
2018-01-07T09:11:13.727Z,1156.00
2018-01-07T09:12:13.662Z,1196.00
2018-01-07T09:13:13.601Z,1220.00
2018-01-07T09:14:13.534Z,1204.00
2018-01-07T09:15:13.469Z,1160.00
2018-01-07T09:16:13.405Z,1140.00
2018-01-07T09:17:13.342Z,1132.00
2018-01-07T09:18:13.276Z,1144.00
2018-01-07T09:19:13.217Z,1160.00
2018-01-07T09:20:13.148Z,1196.00
2018-01-07T09:21:13.085Z,1204.00
2018-01-07T09:22:13.040Z,1220.00
2018-01-07T09:23:12.972Z,1248.00
2018-01-07T09:24:12.891Z,1264.00
2018-01-07T09:25:12.827Z,1320.00
2018-01-07T09:26:12.764Z,1352.00
2018-01-07T09:27:12.700Z,1372.00
2018-01-07T09:28:12.647Z,1392.00
2018-01-07T09:29:12.571Z,1416.00
2018-01-07T09:30:12.506Z,1444.00
2018-01-07T09:31:12.442Z,1488.00
2018-01-07T09:32:12.378Z,1592.00
2018-01-07T09:33:12.314Z,1676.00
2018-01-07T09:34:12.251Z,1728.00
2018-01-07T09:35:12.185Z,1728.00
2018-01-07T09:36:12.121Z,1756.00
2018-01-07T09:37:12.259Z,1824.00
2018-01-07T09:38:11.991Z,1804.00
2018-01-07T09:39:11.929Z,1780.00
2018-01-07T09:40:11.864Z,1732.00
2018-01-07T09:41:11.802Z,1720.00
2018-01-07T09:42:11.736Z,1788.00
2018-01-07T09:43:11.674Z,1812.00
2018-01-07T09:44:11.608Z,1828.00
2018-01-07T09:45:11.545Z,1848.00
2018-01-07T09:46:11.478Z,1948.00
2018-01-07T09:47:11.416Z,2044.00
2018-01-07T09:48:11.350Z,2180.00
2018-01-07T09:49:11.308Z,2280.00
2018-01-07T09:50:11.223Z,2348.00
2018-01-07T09:51:11.170Z,2380.00
2018-01-07T09:52:11.096Z,2324.00
2018-01-07T09:53:11.031Z,2276.00
2018-01-07T09:54:10.966Z,2340.00
2018-01-07T09:55:10.901Z,2452.00
2018-01-07T09:56:10.877Z,2544.00
2018-01-07T09:57:10.773Z,2584.00
2018-01-07T09:58:10.714Z,2592.00
2018-01-07T09:59:10.648Z,2604.00
2018-01-07T10:00:10.614Z,2816.00
2018-01-07T10:01:10.518Z,2912.00
2018-01-07T10:02:10.453Z,2968.00
2018-01-07T10:03:10.390Z,3124.00
2018-01-07T10:04:10.326Z,3320.00
2018-01-07T10:05:10.261Z,3384.00
2018-01-07T10:06:10.198Z,3324.00
2018-01-07T10:07:10.136Z,3252.00
2018-01-07T10:08:10.094Z,3420.00
2018-01-07T10:09:10.012Z,3244.00
2018-01-07T10:10:09.947Z,3292.00
2018-01-07T10:11:09.878Z,3252.00
2018-01-07T10:12:09.813Z,3204.00
2018-01-07T10:13:09.750Z,3452.00
2018-01-07T10:14:09.687Z,3348.00
2018-01-07T10:15:09.621Z,3380.00
2018-01-07T10:16:09.560Z,3392.00
2018-01-07T10:17:09.494Z,3380.00
2018-01-07T10:18:09.431Z,3536.00
2018-01-07T10:19:09.370Z,3524.00
2018-01-07T10:20:09.302Z,3760.00
2018-01-07T10:21:09.240Z,3916.00
2018-01-07T10:22:09.193Z,3980.00
2018-01-07T10:23:09.113Z,3872.00
2018-01-07T10:24:09.061Z,3880.00
2018-01-07T10:25:08.984Z,3752.00
2018-01-07T10:26:08.919Z,3720.00
2018-01-07T10:27:08.856Z,3752.00
2018-01-07T10:28:08.791Z,3792.00
2018-01-07T10:29:08.729Z,3880.00
2018-01-07T10:30:08.666Z,4036.00
2018-01-07T10:31:08.601Z,4220.00
2018-01-07T10:32:08.537Z,4272.00
2018-01-07T10:33:08.473Z,4200.00
2018-01-07T10:34:08.409Z,4140.00
2018-01-07T10:35:08.347Z,4156.00
2018-01-07T10:36:08.280Z,4004.00
2018-01-07T10:37:08.221Z,3960.00
2018-01-07T10:38:08.155Z,3928.00
2018-01-07T10:39:08.091Z,3844.00
2018-01-07T10:40:08.026Z,3892.00
2018-01-07T10:41:07.962Z,4128.00
2018-01-07T10:42:07.898Z,4260.00
2018-01-07T10:43:07.837Z,4452.00
2018-01-07T10:44:07.771Z,4432.00
2018-01-07T10:45:07.708Z,4236.00
2018-01-07T10:46:07.646Z,4356.00
2018-01-07T10:47:07.581Z,4456.00
2018-01-07T10:48:07.516Z,4432.00
2018-01-07T10:49:07.471Z,4476.00
2018-01-07T10:50:07.388Z,4416.00
2018-01-07T10:51:07.326Z,4536.00
2018-01-07T10:52:07.261Z,4760.00
2018-01-07T10:53:07.198Z,4812.00
2018-01-07T10:54:07.134Z,4932.00
2018-01-07T10:55:07.071Z,5228.00
2018-01-07T10:56:07.006Z,5296.00
2018-01-07T10:57:06.943Z,5560.00
2018-01-07T10:58:06.879Z,5844.00
2018-01-07T10:59:06.823Z,6416.00
2018-01-07T11:00:06.751Z,6492.00
2018-01-07T11:01:06.687Z,6696.00
2018-01-07T11:02:06.626Z,6564.00
2018-01-07T11:03:06.561Z,6560.00
2018-01-07T11:04:06.501Z,6860.00
2018-01-07T11:05:06.433Z,6876.00
2018-01-07T11:06:06.370Z,6896.00
2018-01-07T11:07:06.306Z,6732.00
2018-01-07T11:08:06.241Z,6804.00
2018-01-07T11:09:06.181Z,6832.00
2018-01-07T11:10:06.116Z,6768.00
2018-01-07T11:11:06.053Z,6604.00
2018-01-07T11:12:05.989Z,6496.00
2018-01-07T11:13:05.925Z,6652.00
2018-01-07T11:14:05.862Z,6736.00
2018-01-07T11:15:05.799Z,6360.00
2018-01-07T11:16:05.734Z,6120.00
2018-01-07T11:17:05.671Z,6432.00
2018-01-07T11:18:05.609Z,6912.00
2018-01-07T11:19:05.545Z,7328.00
2018-01-07T11:20:05.480Z,7884.00
2018-01-07T11:21:05.417Z,7952.00
2018-01-07T11:22:05.354Z,7932.00
2018-01-07T11:23:05.292Z,8012.00
2018-01-07T11:24:05.227Z,7944.00
2018-01-07T11:25:05.165Z,7912.00
2018-01-07T11:26:05.101Z,7576.00
2018-01-07T11:27:05.038Z,7284.00
2018-01-07T11:28:04.975Z,7476.00
2018-01-07T11:29:04.919Z,7460.00
2018-01-07T11:30:04.848Z,7332.00
2018-01-07T11:31:04.785Z,7600.00
2018-01-07T11:32:04.721Z,7352.00
2018-01-07T11:33:04.658Z,6904.00
2018-01-07T11:34:04.596Z,6960.00
2018-01-07T11:35:04.532Z,6904.00
2018-01-07T11:36:04.468Z,7472.00
2018-01-07T11:37:04.405Z,7784.00
2018-01-07T11:38:04.341Z,8220.00
2018-01-07T11:39:04.278Z,8604.00
2018-01-07T11:40:04.214Z,9472.00
2018-01-07T11:41:04.155Z,9128.00
2018-01-07T11:42:04.088Z,8920.00
2018-01-07T11:43:04.275Z,8880.00
2018-01-07T11:44:03.966Z,9256.00
2018-01-07T11:45:03.904Z,9184.00
2018-01-07T11:46:03.835Z,9104.00
2018-01-07T11:47:03.772Z,8864.00
2018-01-07T11:48:03.707Z,8764.00
2018-01-07T11:49:03.645Z,9440.00
2018-01-07T11:50:03.583Z,9856.00
2018-01-07T11:51:03.518Z,9152.00
2018-01-07T11:52:03.460Z,9520.00
2018-01-07T11:53:03.393Z,9096.00
2018-01-07T11:54:03.328Z,8484.00
2018-01-07T11:55:03.267Z,7856.00
2018-01-07T11:56:03.202Z,7852.00
2018-01-07T11:57:03.139Z,7820.00
2018-01-07T11:58:03.126Z,7268.00
2018-01-07T11:59:03.013Z,7452.00
2018-01-07T12:00:02.950Z,6708.00
2018-01-07T12:01:02.892Z,6584.00
2018-01-07T12:02:02.827Z,6776.00
2018-01-07T12:03:02.760Z,7292.00
2018-01-07T12:04:02.695Z,6824.00
2018-01-07T12:05:02.633Z,6468.00
2018-01-07T12:06:02.568Z,6540.00
2018-01-07T12:07:02.507Z,6728.00
2018-01-07T12:08:02.442Z,7416.00
2018-01-07T12:09:02.380Z,7768.00
2018-01-07T12:10:02.317Z,7452.00
2018-01-07T12:11:02.254Z,6668.00
2018-01-07T12:12:02.191Z,6276.00
2018-01-07T12:13:02.177Z,6028.00
2018-01-07T12:14:02.074Z,6100.00
2018-01-07T12:15:02.001Z,5832.00
2018-01-07T12:16:01.937Z,5872.00
2018-01-07T12:17:01.880Z,5576.00
2018-01-07T12:18:01.811Z,5420.00
2018-01-07T12:19:01.747Z,5152.00
2018-01-07T12:20:01.774Z,4904.00
2018-01-07T12:21:01.621Z,4332.00
2018-01-07T12:22:01.560Z,4124.00
2018-01-07T12:23:01.495Z,4064.00
2018-01-07T12:24:01.431Z,3532.00
2018-01-07T12:25:01.368Z,3312.00
2018-01-07T12:26:01.309Z,3140.00
2018-01-07T12:27:01.269Z,2944.00
2018-01-07T12:28:01.178Z,3052.00
2018-01-07T12:29:01.116Z,3356.00
2018-01-07T12:30:01.052Z,3492.00
2018-01-07T12:31:00.989Z,3540.00
2018-01-07T12:32:00.925Z,3696.00
2018-01-07T12:33:00.862Z,4060.00
2018-01-07T12:34:00.798Z,4052.00
2018-01-07T12:35:00.736Z,4028.00
2018-01-07T12:36:00.670Z,4096.00
2018-01-07T12:37:00.609Z,3672.00
2018-01-07T12:38:00.546Z,3452.00
2018-01-07T12:39:00.481Z,3412.00
2018-01-07T12:40:00.418Z,3332.00
2018-01-07T12:41:00.356Z,3176.00
2018-01-07T12:42:00.290Z,2700.00
2018-01-07T12:43:00.227Z,2472.00
2018-01-07T12:44:00.163Z,2348.00
2018-01-07T12:45:00.114Z,2180.00
2018-01-07T12:46:00.040Z,2024.00
2018-01-07T12:46:59.985Z,1944.00
2018-01-07T12:47:59.908Z,1976.00
2018-01-07T12:48:59.893Z,2084.00